createdAt,value
2019-05-02T00:00:53.577Z,98.80
2019-05-02T00:03:24.298Z,98.59
2019-05-02T00:05:53.111Z,98.50
2019-05-02T00:08:22.732Z,98.57
2019-05-02T00:10:51.985Z,98.47
2019-05-02T00:13:20.777Z,98.52
2019-05-02T00:15:51.050Z,98.46
2019-05-02T00:18:20.610Z,98.44
2019-05-02T00:20:49.342Z,98.61
2019-05-02T00:23:18.250Z,98.60
2019-05-02T00:25:47.266Z,98.71
2019-05-02T00:28:17.542Z,98.75
2019-05-02T00:30:46.350Z,98.73
2019-05-02T00:33:15.030Z,98.73
2019-05-02T00:35:46.089Z,98.74
2019-05-02T00:38:14.183Z,98.70
2019-05-02T00:40:42.873Z,98.74
2019-05-02T00:43:11.603Z,98.85
2019-05-02T00:45:40.263Z,98.94
2019-05-02T00:48:14.415Z,99.09
2019-05-02T00:50:45.430Z,99.20
2019-05-02T00:53:13.604Z,99.33
2019-05-02T00:55:42.252Z,99.40
2019-05-02T00:58:11.007Z,99.38
2019-05-02T01:00:59.842Z,99.30
2019-05-02T01:03:31.982Z,99.05
2019-05-02T01:06:00.127Z,98.72
2019-05-02T01:08:31.004Z,98.76
2019-05-02T01:10:59.292Z,98.92
2019-05-02T01:13:28.008Z,99.13
2019-05-02T01:15:56.671Z,99.27
2019-05-02T01:18:25.454Z,99.39
2019-05-02T01:20:58.250Z,99.17
2019-05-02T01:23:27.564Z,99.10
2019-05-02T01:25:54.960Z,99.43
2019-05-02T01:28:42.688Z,99.64
2019-05-02T01:31:20.214Z,99.62
2019-05-02T01:34:00.209Z,99.47
2019-05-02T01:36:36.753Z,99.47
2019-05-02T01:39:07.600Z,99.56
2019-05-02T01:41:35.691Z,99.55
2019-05-02T01:44:04.765Z,99.51
2019-05-02T01:46:33.456Z,99.49
2019-05-02T01:49:02.124Z,99.38
2019-05-02T01:51:30.791Z,99.32
2019-05-02T01:53:59.486Z,99.38
2019-05-02T01:56:28.598Z,99.53
2019-05-02T01:58:58.956Z,99.70
2019-05-02T02:01:27.951Z,99.75
2019-05-02T02:03:56.625Z,99.47
2019-05-02T02:06:25.297Z,99.75
2019-05-02T02:08:53.956Z,99.62
2019-05-02T02:11:22.721Z,99.85
2019-05-02T02:13:51.380Z,99.87
2019-05-02T02:16:20.067Z,99.99
2019-05-02T02:18:59.036Z,100.00
2019-05-02T02:21:48.286Z,100.00
2019-05-02T02:24:27.261Z,100.00
2019-05-02T02:26:56.525Z,100.00
2019-05-02T02:29:25.199Z,100.00
2019-05-02T02:31:53.945Z,100.00
2019-05-02T02:34:29.000Z,100.00
2019-05-02T02:36:53.353Z,100.00
2019-05-02T02:39:22.019Z,99.88
2019-05-02T02:41:52.153Z,99.88
2019-05-02T02:44:39.849Z,99.30
2019-05-02T02:47:12.096Z,97.84
2019-05-02T02:49:36.952Z,97.05
2019-05-02T02:52:06.878Z,95.82
2019-05-02T02:54:36.575Z,94.61
2019-05-02T02:57:06.109Z,94.38
2019-05-02T02:59:34.757Z,93.83
2019-05-02T03:02:10.093Z,93.65
2019-05-02T03:04:33.897Z,93.06
2019-05-02T03:07:02.560Z,91.75
2019-05-02T03:09:31.370Z,90.91
2019-05-02T03:12:18.073Z,91.15
2019-05-02T03:14:51.365Z,91.23
2019-05-02T03:17:26.112Z,91.49
2019-05-02T03:19:54.488Z,91.57
2019-05-02T03:22:20.467Z,91.27
2019-05-02T03:24:49.154Z,91.10
2019-05-02T03:27:18.030Z,90.99
2019-05-02T03:29:46.789Z,90.31
2019-05-02T03:32:30.654Z,89.34
2019-05-02T03:34:52.521Z,89.13
2019-05-02T03:37:17.740Z,89.38
2019-05-02T03:39:49.639Z,88.98
2019-05-02T03:42:17.645Z,88.87
2019-05-02T03:44:55.071Z,88.90
2019-05-02T03:47:16.776Z,88.79
2019-05-02T03:49:48.894Z,89.15
2019-05-02T03:52:16.090Z,88.91
2019-05-02T03:54:50.127Z,89.18
2019-05-02T03:57:15.507Z,89.37
2019-05-02T03:59:44.189Z,89.23
2019-05-02T04:02:13.993Z,88.87
2019-05-02T04:04:43.892Z,88.36
2019-05-02T04:07:12.857Z,87.76
2019-05-02T04:09:42.597Z,88.26
2019-05-02T04:12:18.513Z,88.56
2019-05-02T04:14:42.576Z,88.23
2019-05-02T04:17:12.010Z,88.38
2019-05-02T04:19:41.616Z,88.12
2019-05-02T04:22:12.068Z,88.09
2019-05-02T04:24:47.332Z,88.13
2019-05-02T04:27:13.100Z,88.20
2019-05-02T04:29:42.563Z,87.82
2019-05-02T04:32:14.156Z,87.24
2019-05-02T04:34:41.693Z,87.61
2019-05-02T04:37:10.412Z,87.49
2019-05-02T04:39:39.343Z,87.62
2019-05-02T04:42:13.349Z,87.61
2019-05-02T04:44:46.391Z,87.62
2019-05-02T04:47:16.604Z,87.56
2019-05-02T04:49:39.520Z,87.10
2019-05-02T04:52:12.453Z,86.99
2019-05-02T04:54:39.065Z,86.18
2019-05-02T04:57:08.690Z,85.46
2019-05-02T04:59:39.561Z,84.65
2019-05-02T05:02:08.977Z,84.75
2019-05-02T05:04:42.339Z,83.50
2019-05-02T05:07:09.290Z,83.77
2019-05-02T05:09:39.870Z,83.37
2019-05-02T05:12:08.826Z,84.17
2019-05-02T05:14:41.292Z,83.48
2019-05-02T05:17:08.114Z,82.58
2019-05-02T05:19:37.349Z,82.82
2019-05-02T05:22:08.854Z,82.43
2019-05-02T05:24:44.963Z,81.68
2019-05-02T05:27:18.990Z,81.89
2019-05-02T05:29:45.999Z,82.43
2019-05-02T05:32:14.761Z,82.44
2019-05-02T05:34:43.447Z,82.92
2019-05-02T05:37:13.536Z,82.31
2019-05-02T05:39:43.048Z,82.40
2019-05-02T05:42:12.767Z,82.79
2019-05-02T05:44:41.426Z,82.62
2019-05-02T05:47:12.120Z,82.54
2019-05-02T05:49:40.500Z,81.66
2019-05-02T05:52:09.267Z,81.44
2019-05-02T05:54:41.889Z,81.50
2019-05-02T05:57:12.233Z,80.62
2019-05-02T05:59:38.737Z,80.99
2019-05-02T06:02:12.679Z,82.41
2019-05-02T06:04:38.701Z,82.38
2019-05-02T06:07:07.629Z,81.95
2019-05-02T06:09:36.368Z,81.83
2019-05-02T06:12:05.071Z,81.30
2019-05-02T06:14:34.538Z,81.63
2019-05-02T06:17:03.550Z,81.88
2019-05-02T06:19:32.255Z,81.61
2019-05-02T06:22:01.020Z,80.87
2019-05-02T06:24:29.680Z,80.55
2019-05-02T06:26:58.368Z,79.04
2019-05-02T06:29:27.075Z,80.78
2019-05-02T06:31:57.325Z,81.46
2019-05-02T06:34:26.268Z,81.30
2019-05-02T06:36:54.960Z,80.19
2019-05-02T06:39:27.060Z,80.61
2019-05-02T06:41:57.551Z,81.11
2019-05-02T06:44:25.434Z,81.49
2019-05-02T06:46:54.183Z,82.52
2019-05-02T06:49:24.895Z,82.28
2019-05-02T06:51:56.231Z,81.25
2019-05-02T06:54:24.142Z,80.71
2019-05-02T06:56:52.879Z,80.41
2019-05-02T06:59:21.623Z,80.53
2019-05-02T07:01:52.402Z,81.18
2019-05-02T07:04:22.775Z,80.61
2019-05-02T07:06:58.845Z,80.85
2019-05-02T07:09:21.942Z,81.26
2019-05-02T07:11:57.852Z,80.82
2019-05-02T07:14:23.433Z,80.21
2019-05-02T07:17:05.829Z,80.39
2019-05-02T07:19:37.697Z,79.68
2019-05-02T07:22:06.439Z,79.12
2019-05-02T07:24:35.197Z,77.81
2019-05-02T07:27:04.151Z,78.81
2019-05-02T07:29:32.824Z,80.26
2019-05-02T07:32:01.500Z,79.71
2019-05-02T07:34:30.216Z,79.76
2019-05-02T07:36:58.856Z,79.72
2019-05-02T07:39:27.584Z,79.02
2019-05-02T07:42:00.456Z,78.23
2019-05-02T07:44:27.170Z,78.42
2019-05-02T07:47:02.607Z,79.27
2019-05-02T07:49:32.152Z,78.93
2019-05-02T07:51:58.950Z,78.91
2019-05-02T07:54:27.646Z,78.16
2019-05-02T07:56:56.335Z,77.18
2019-05-02T07:59:25.144Z,76.73
2019-05-02T08:01:53.993Z,76.87
2019-05-02T08:04:22.701Z,76.32
2019-05-02T08:06:51.377Z,77.20
2019-05-02T08:09:20.036Z,76.18
2019-05-02T08:11:48.829Z,74.08
2019-05-02T08:14:17.550Z,74.66
2019-05-02T08:16:46.199Z,76.20
2019-05-02T08:19:14.876Z,75.42
2019-05-02T08:21:43.590Z,75.59
2019-05-02T08:24:12.244Z,75.52
2019-05-02T08:26:59.721Z,75.41
2019-05-02T08:29:29.266Z,76.69
2019-05-02T08:31:58.825Z,74.85
2019-05-02T08:34:32.273Z,74.92
2019-05-02T08:37:03.225Z,75.13
2019-05-02T08:39:33.951Z,76.04
2019-05-02T08:42:02.615Z,76.73
2019-05-02T08:44:31.285Z,75.90
2019-05-02T08:47:00.994Z,77.06
2019-05-02T08:49:31.122Z,76.95
2019-05-02T08:52:01.249Z,74.91
2019-05-02T08:54:32.812Z,75.92
2019-05-02T08:57:01.334Z,75.58
2019-05-02T08:59:30.009Z,74.54
2019-05-02T09:01:58.672Z,74.67
2019-05-02T09:04:29.058Z,73.82
2019-05-02T09:07:00.500Z,74.78
2019-05-02T09:09:29.529Z,73.82
2019-05-02T09:12:09.720Z,71.03
2019-05-02T09:14:28.751Z,72.94
2019-05-02T09:17:00.321Z,72.72
2019-05-02T09:19:27.833Z,72.55
2019-05-02T09:21:56.492Z,73.49
2019-05-02T09:24:25.177Z,72.77
2019-05-02T09:26:53.838Z,70.81
2019-05-02T09:29:22.511Z,69.92
2019-05-02T09:31:52.751Z,70.08
2019-05-02T09:34:22.790Z,68.80
2019-05-02T09:36:52.912Z,68.42
2019-05-02T09:39:22.689Z,67.79
2019-05-02T09:41:52.731Z,69.81
2019-05-02T09:44:22.377Z,69.36
2019-05-02T09:46:55.209Z,69.74
2019-05-02T09:49:22.141Z,68.73
2019-05-02T09:51:59.200Z,69.04
2019-05-02T09:54:23.162Z,69.82
2019-05-02T09:56:52.477Z,70.16
2019-05-02T09:59:27.774Z,67.75
2019-05-02T10:01:53.643Z,67.54
2019-05-02T10:04:22.520Z,66.28
2019-05-02T10:06:52.518Z,66.05
2019-05-02T10:09:24.088Z,66.45
2019-05-02T10:11:52.571Z,66.42
2019-05-02T10:14:22.713Z,67.77
2019-05-02T10:16:52.931Z,67.48
2019-05-02T10:19:25.881Z,67.17
2019-05-02T10:21:56.172Z,68.34
2019-05-02T10:24:22.874Z,68.70
2019-05-02T10:26:55.268Z,67.48
2019-05-02T10:29:28.151Z,66.38
2019-05-02T10:31:52.778Z,63.47
2019-05-02T10:34:22.603Z,60.71
2019-05-02T10:36:58.591Z,61.09
2019-05-02T10:39:23.416Z,58.38
2019-05-02T10:41:52.724Z,56.12
2019-05-02T10:44:22.701Z,58.48
2019-05-02T10:46:56.158Z,59.60
2019-05-02T10:49:32.128Z,60.36
2019-05-02T10:52:02.610Z,56.60
2019-05-02T10:54:33.675Z,59.02
2019-05-02T10:57:02.363Z,58.11
2019-05-02T10:59:32.785Z,52.37
2019-05-02T11:02:19.642Z,51.17
2019-05-02T11:04:52.437Z,51.80
2019-05-02T11:07:22.643Z,54.02
2019-05-02T11:09:52.593Z,57.65
2019-05-02T11:12:44.485Z,58.10
2019-05-02T11:15:26.903Z,55.55
2019-05-02T11:17:55.603Z,53.37
2019-05-02T11:20:24.269Z,53.80
2019-05-02T11:22:54.636Z,55.61
2019-05-02T11:25:23.464Z,56.82
2019-05-02T11:27:52.609Z,58.31
2019-05-02T11:30:26.374Z,55.66
2019-05-02T11:32:52.157Z,55.88
2019-05-02T11:35:22.367Z,55.15
2019-05-02T11:37:51.726Z,53.81
2019-05-02T11:40:22.683Z,51.91
2019-05-02T11:42:52.173Z,49.08
2019-05-02T11:45:22.709Z,49.20
2019-05-02T11:47:54.445Z,47.83
2019-05-02T11:50:22.146Z,45.73
2019-05-02T11:52:52.324Z,48.20
2019-05-02T11:55:24.752Z,49.67
2019-05-02T11:57:52.370Z,51.71
2019-05-02T12:00:21.849Z,50.91
2019-05-02T12:02:58.861Z,50.24
2019-05-02T12:05:35.651Z,49.23
2019-05-02T12:08:07.713Z,47.71
2019-05-02T12:10:36.619Z,48.27
2019-05-02T12:13:06.707Z,49.06
2019-05-02T12:15:35.658Z,50.17
2019-05-02T12:18:04.777Z,48.88
2019-05-02T12:20:36.591Z,52.83
2019-05-02T12:23:03.928Z,50.78
2019-05-02T12:25:32.894Z,49.15
2019-05-02T12:28:02.348Z,51.52
2019-05-02T12:30:34.085Z,52.63
2019-05-02T12:33:03.932Z,52.12
2019-05-02T12:35:32.622Z,52.62
2019-05-02T12:38:02.718Z,52.82
2019-05-02T12:40:32.586Z,54.20
2019-05-02T12:43:02.463Z,54.35
2019-05-02T12:45:33.587Z,55.76
2019-05-02T12:48:02.426Z,56.25
2019-05-02T12:50:32.206Z,55.54
2019-05-02T12:53:02.792Z,53.15
2019-05-02T12:55:32.607Z,52.31
2019-05-02T12:58:03.099Z,52.99
2019-05-02T13:00:32.126Z,52.52
2019-05-02T13:03:12.236Z,52.30
2019-05-02T13:05:42.603Z,51.28
2019-05-02T13:08:12.303Z,48.82
2019-05-02T13:11:06.634Z,45.97
2019-05-02T13:13:33.224Z,41.87
2019-05-02T13:16:03.756Z,39.16
2019-05-02T13:18:36.326Z,41.73
2019-05-02T13:21:08.123Z,47.43
2019-05-02T13:23:44.286Z,51.65
2019-05-02T13:26:19.805Z,53.33
2019-05-02T13:28:44.181Z,50.68
2019-05-02T13:31:23.354Z,50.70
2019-05-02T13:33:58.722Z,51.27
2019-05-02T13:36:44.040Z,55.08
2019-05-02T13:39:22.072Z,56.24
2019-05-02T13:41:52.180Z,56.39
2019-05-02T13:44:24.652Z,57.70
2019-05-02T13:46:53.621Z,55.84
2019-05-02T13:49:22.452Z,55.49
2019-05-02T13:51:52.109Z,55.33
2019-05-02T13:54:22.085Z,50.28
2019-05-02T13:56:52.899Z,48.92
2019-05-02T13:59:22.464Z,53.59
2019-05-02T14:01:55.890Z,52.38
2019-05-02T14:04:27.691Z,49.50
2019-05-02T14:06:58.904Z,52.26
2019-05-02T14:09:52.694Z,55.48
2019-05-02T14:12:27.221Z,55.73
2019-05-02T14:14:58.657Z,57.31
2019-05-02T14:17:32.448Z,54.88
2019-05-02T14:20:10.450Z,56.35
2019-05-02T14:22:33.847Z,56.98
2019-05-02T14:25:04.140Z,57.07
2019-05-02T14:27:34.680Z,57.24
2019-05-02T14:30:06.192Z,55.98
2019-05-02T14:32:36.115Z,54.96
2019-05-02T14:35:32.600Z,55.66
2019-05-02T14:38:17.610Z,56.11
2019-05-02T14:40:58.796Z,56.58
2019-05-02T14:43:48.356Z,54.95
2019-05-02T14:46:22.140Z,54.43
2019-05-02T14:48:52.782Z,54.79
2019-05-02T14:51:27.567Z,55.22
2019-05-02T14:53:57.394Z,55.75
2019-05-02T14:56:45.911Z,56.00
2019-05-02T14:59:17.902Z,55.86
2019-05-02T15:01:46.734Z,55.52
2019-05-02T15:04:17.529Z,55.71
2019-05-02T15:06:49.518Z,57.07
2019-05-02T15:09:24.829Z,56.19
2019-05-02T15:12:02.397Z,56.25
2019-05-02T15:14:37.491Z,56.43
2019-05-02T15:17:09.546Z,55.64
2019-05-02T15:19:39.565Z,56.85
2019-05-02T15:22:12.460Z,57.25
2019-05-02T15:24:42.433Z,57.41
2019-05-02T15:27:17.690Z,58.20
2019-05-02T15:29:44.091Z,59.32
2019-05-02T15:32:28.354Z,60.48
2019-05-02T15:35:02.997Z,62.38
2019-05-02T15:37:32.218Z,69.23
2019-05-02T15:42:34.189Z,79.79
2019-05-02T15:45:05.644Z,82.25
2019-05-02T15:47:37.126Z,82.77
2019-05-02T15:50:04.261Z,82.21
2019-05-02T15:52:34.705Z,81.66
2019-05-02T15:55:04.273Z,83.38
2019-05-02T15:57:43.076Z,80.34
2019-05-02T16:00:03.921Z,78.12
2019-05-02T16:02:32.966Z,78.45
2019-05-02T16:05:05.074Z,76.87
2019-05-02T16:07:32.634Z,79.07
2019-05-02T16:10:03.849Z,75.73
2019-05-02T16:12:35.960Z,78.54
2019-05-02T16:15:08.419Z,79.81
2019-05-02T16:17:33.437Z,78.51
2019-05-02T16:20:10.835Z,77.92
2019-05-02T16:22:46.238Z,78.24
2019-05-02T16:25:12.209Z,78.77
2019-05-02T16:27:47.757Z,78.38
2019-05-02T16:30:19.181Z,81.39
2019-05-02T16:32:52.431Z,81.75
2019-05-02T16:35:22.167Z,82.48
2019-05-02T16:37:52.305Z,83.24
2019-05-02T16:40:29.783Z,83.80
2019-05-02T16:42:53.767Z,85.44
2019-05-02T16:45:23.282Z,85.43
2019-05-02T16:47:58.800Z,85.68
2019-05-02T16:50:23.059Z,87.58
2019-05-02T16:52:53.356Z,87.75
2019-05-02T16:55:26.623Z,87.41
2019-05-02T16:57:56.860Z,88.10
2019-05-02T17:00:25.571Z,87.54
2019-05-02T17:02:54.301Z,87.94
2019-05-02T17:05:23.109Z,87.23
2019-05-02T17:08:18.621Z,86.96
2019-05-02T17:10:53.793Z,86.41
2019-05-02T17:13:21.463Z,86.30
2019-05-02T17:15:50.025Z,85.08
2019-05-02T17:18:18.713Z,85.13
2019-05-02T17:20:53.538Z,86.50
2019-05-02T17:23:17.871Z,86.75
2019-05-02T17:25:46.647Z,87.03
2019-05-02T17:28:15.322Z,87.47
2019-05-02T17:30:44.061Z,87.62
2019-05-02T17:33:16.069Z,87.89
2019-05-02T17:35:49.300Z,87.91
2019-05-02T17:38:13.899Z,88.36
2019-05-02T17:40:42.561Z,89.22
2019-05-02T17:43:11.450Z,88.88
2019-05-02T17:45:40.262Z,88.76
2019-05-02T17:48:15.704Z,88.84
2019-05-02T17:51:12.451Z,88.41
2019-05-02T17:53:48.107Z,88.54
2019-05-02T17:56:20.304Z,89.18
2019-05-02T17:58:47.455Z,88.90
2019-05-02T18:01:18.879Z,88.16
2019-05-02T18:03:47.557Z,87.93
2019-05-02T18:06:17.389Z,88.39
2019-05-02T18:08:50.631Z,88.58
2019-05-02T18:11:16.482Z,88.94
2019-05-02T18:13:45.167Z,88.54
2019-05-02T18:16:16.615Z,88.25
2019-05-02T18:18:46.773Z,88.07
2019-05-02T18:21:17.747Z,88.63
2019-05-02T18:23:45.139Z,88.49
2019-05-02T18:26:13.813Z,88.84
2019-05-02T18:28:49.066Z,87.95
2019-05-02T18:31:12.968Z,88.56
2019-05-02T18:33:42.574Z,87.95
2019-05-02T18:36:11.341Z,88.25
2019-05-02T18:38:41.716Z,88.07
2019-05-02T18:41:12.057Z,87.74
2019-05-02T18:43:45.093Z,88.19
2019-05-02T18:46:12.756Z,88.57
2019-05-02T18:48:45.768Z,88.28
2019-05-02T18:51:17.247Z,88.55
2019-05-02T18:53:43.025Z,88.66
2019-05-02T18:56:12.452Z,89.58
2019-05-02T18:58:45.190Z,88.78
2019-05-02T19:01:14.014Z,89.16
2019-05-02T19:03:42.308Z,89.67
2019-05-02T19:06:11.699Z,89.19
2019-05-02T19:08:46.631Z,89.42
2019-05-02T19:11:14.168Z,89.64
2019-05-02T19:13:44.429Z,90.52
2019-05-02T19:16:13.362Z,90.68
2019-05-02T19:18:42.517Z,91.27
2019-05-02T19:21:12.527Z,91.76
2019-05-02T19:23:42.608Z,91.50
2019-05-02T19:26:14.977Z,91.92
2019-05-02T19:28:48.296Z,91.39
2019-05-02T19:31:16.955Z,90.74
2019-05-02T19:33:45.698Z,90.80
2019-05-02T19:36:16.471Z,90.76
2019-05-02T19:38:44.889Z,91.40
2019-05-02T19:41:13.648Z,91.21
2019-05-02T19:43:49.443Z,91.13
2019-05-02T19:46:12.775Z,91.40
2019-05-02T19:48:43.074Z,90.50
2019-05-02T19:51:18.683Z,90.08
2019-05-02T19:53:42.675Z,90.88
2019-05-02T19:56:12.770Z,89.93
2019-05-02T19:58:46.475Z,90.91
2019-05-02T20:01:12.659Z,90.66
2019-05-02T20:03:42.440Z,89.64
2019-05-02T20:06:12.816Z,90.27
2019-05-02T20:08:42.022Z,90.28
2019-05-02T20:11:12.608Z,89.46
2019-05-02T20:13:41.420Z,89.04
2019-05-02T20:16:19.355Z,89.98
2019-05-02T20:18:48.036Z,89.85
2019-05-02T20:21:27.398Z,89.41
2019-05-02T20:23:52.475Z,88.22
2019-05-02T20:26:22.141Z,88.68
2019-05-02T20:28:52.806Z,87.83
2019-05-02T20:31:21.742Z,87.64
2019-05-02T20:33:52.006Z,88.62
2019-05-02T20:36:22.704Z,88.28
2019-05-02T20:38:52.566Z,89.06
2019-05-02T20:41:22.422Z,89.10
2019-05-02T20:43:51.673Z,89.11
2019-05-02T20:46:21.835Z,89.52
2019-05-02T20:48:52.554Z,89.42
2019-05-02T20:51:22.781Z,88.62
2019-05-02T20:53:52.557Z,87.79
2019-05-02T20:56:23.055Z,88.83
2019-05-02T20:58:52.689Z,88.70
2019-05-02T21:01:21.810Z,89.22
2019-05-02T21:03:52.176Z,88.88
2019-05-02T21:06:46.245Z,89.08
2019-05-02T21:09:37.192Z,89.93
2019-05-02T21:12:07.237Z,90.35
2019-05-02T21:14:36.087Z,90.40
2019-05-02T21:17:05.087Z,89.89
2019-05-02T21:19:33.878Z,89.91
2019-05-02T21:22:07.301Z,90.38
2019-05-02T21:24:36.073Z,90.41
2019-05-02T21:27:04.872Z,90.27
2019-05-02T21:29:33.537Z,90.96
2019-05-02T21:32:02.291Z,91.16
2019-05-02T21:34:31.832Z,91.51
2019-05-02T21:37:02.468Z,90.27
2019-05-02T21:39:31.905Z,89.57
2019-05-02T21:42:02.343Z,89.86
2019-05-02T21:44:31.614Z,89.93
2019-05-02T21:47:02.479Z,85.89
2019-05-02T21:49:42.990Z,85.12
2019-05-02T21:52:27.324Z,85.51
2019-05-02T21:55:06.377Z,86.27
2019-05-02T21:57:35.023Z,84.62
2019-05-02T22:00:05.907Z,85.60
2019-05-02T22:02:34.733Z,85.49
2019-05-02T22:05:03.759Z,87.33
2019-05-02T22:07:32.446Z,86.38
2019-05-02T22:10:02.982Z,86.64
2019-05-02T22:12:31.842Z,86.99
2019-05-02T22:15:02.321Z,86.61
2019-05-02T22:17:32.264Z,86.31
2019-05-02T22:20:01.807Z,87.00
2019-05-02T22:22:32.125Z,87.46
2019-05-02T22:25:02.209Z,87.93
2019-05-02T22:27:32.505Z,87.71
2019-05-02T22:30:02.090Z,87.79
2019-05-02T22:32:32.130Z,88.23
2019-05-02T22:35:01.813Z,88.61
2019-05-02T22:37:32.615Z,88.14
2019-05-02T22:40:05.162Z,87.08
2019-05-02T22:42:33.811Z,87.39
2019-05-02T22:45:04.629Z,85.29
2019-05-02T22:47:32.857Z,85.39
2019-05-02T22:50:01.509Z,84.97
2019-05-02T22:52:32.153Z,85.99
2019-05-02T22:55:02.862Z,85.28
2019-05-02T22:57:31.831Z,84.40
2019-05-02T23:00:01.930Z,83.98
2019-05-02T23:02:32.481Z,82.92
2019-05-02T23:05:01.934Z,83.74
2019-05-02T23:07:30.887Z,81.96
2019-05-02T23:09:59.543Z,82.50
2019-05-02T23:12:28.221Z,82.44
2019-05-02T23:14:56.916Z,83.02
2019-05-02T23:17:25.558Z,81.26
2019-05-02T23:19:54.207Z,83.24
2019-05-02T23:22:22.886Z,83.48
2019-05-02T23:25:09.374Z,83.75
2019-05-02T23:27:45.153Z,83.81
2019-05-02T23:30:16.973Z,83.51
2019-05-02T23:32:45.625Z,83.56
2019-05-02T23:35:15.158Z,81.80
2019-05-02T23:37:43.830Z,82.75
2019-05-02T23:40:12.694Z,82.52
2019-05-02T23:42:41.774Z,82.96
2019-05-02T23:45:12.121Z,82.20
2019-05-02T23:47:42.157Z,82.32
2019-05-02T23:50:12.133Z,82.62
2019-05-02T23:52:40.948Z,82.27
2019-05-02T23:55:09.766Z,82.37
2019-05-02T23:57:38.518Z,82.59
